createdAt,value
2018-12-26T00:01:23.760Z,3.23
2018-12-26T00:03:53.064Z,3.54
2018-12-26T00:06:23.425Z,2.79
2018-12-26T00:08:55.040Z,2.84
2018-12-26T00:11:24.203Z,3.56
2018-12-26T00:13:54.712Z,3.73
2018-12-26T00:16:23.891Z,2.85
2018-12-26T00:18:56.152Z,2.97
2018-12-26T00:21:25.279Z,2.65
2018-12-26T00:23:54.405Z,2.93
2018-12-26T00:26:23.657Z,2.73
2018-12-26T00:28:52.741Z,2.68
2018-12-26T00:31:25.863Z,3.47
2018-12-26T00:33:56.111Z,3.79
2018-12-26T00:36:26.901Z,3.56
2018-12-26T00:39:00.154Z,3.80
2018-12-26T00:41:29.274Z,3.15
2018-12-26T00:44:00.342Z,3.80
2018-12-26T00:46:29.497Z,4.36
2018-12-26T00:48:58.983Z,3.24
2018-12-26T00:51:28.362Z,3.60
2018-12-26T00:54:04.621Z,3.63
2018-12-26T00:56:38.928Z,4.14
2018-12-26T00:59:08.159Z,3.86
2018-12-26T01:01:37.275Z,3.13
2018-12-26T01:04:06.357Z,3.53
2018-12-26T01:06:35.556Z,3.96
2018-12-26T01:09:06.867Z,3.33
2018-12-26T01:11:38.575Z,3.71
2018-12-26T01:14:07.660Z,3.60
2018-12-26T01:16:38.686Z,3.62
2018-12-26T01:19:09.259Z,3.72
2018-12-26T01:21:42.147Z,4.17
2018-12-26T01:24:11.228Z,3.61
2018-12-26T01:26:40.341Z,3.63
2018-12-26T01:29:12.784Z,3.75
2018-12-26T01:31:42.153Z,3.74
2018-12-26T01:34:12.376Z,4.25
2018-12-26T01:36:41.481Z,3.02
2018-12-26T01:39:10.556Z,2.59
2018-12-26T01:41:39.690Z,2.45
2018-12-26T01:44:10.509Z,2.87
2018-12-26T01:46:39.607Z,3.04
2018-12-26T01:49:09.712Z,2.70
2018-12-26T01:51:42.382Z,2.87
2018-12-26T01:54:12.363Z,2.90
2018-12-26T01:56:41.863Z,2.73
2018-12-26T01:59:12.362Z,2.11
2018-12-26T02:01:41.457Z,1.92
2018-12-26T02:04:14.058Z,1.63
2018-12-26T02:06:46.063Z,1.66
2018-12-26T02:09:15.805Z,1.83
2018-12-26T02:11:48.876Z,1.95
2018-12-26T02:14:18.050Z,1.92
2018-12-26T02:16:47.342Z,1.72
2018-12-26T02:19:16.466Z,1.79
2018-12-26T02:21:45.668Z,2.10
2018-12-26T02:24:19.078Z,1.66
2018-12-26T02:26:48.258Z,1.59
2018-12-26T02:29:18.763Z,1.88
2018-12-26T02:31:51.159Z,2.03
2018-12-26T02:34:23.551Z,1.85
2018-12-26T02:36:54.410Z,1.38
2018-12-26T02:39:26.326Z,1.72
2018-12-26T02:41:58.674Z,1.90
2018-12-26T02:44:27.795Z,1.88
2018-12-26T02:46:56.895Z,1.93
2018-12-26T02:49:27.460Z,1.43
2018-12-26T02:51:58.675Z,1.58
2018-12-26T02:54:35.960Z,1.65
2018-12-26T02:57:05.954Z,-0.30
2018-12-26T02:59:35.104Z,2.34
2018-12-26T03:02:07.885Z,1.60
2018-12-26T03:04:42.573Z,2.66
2018-12-26T03:07:15.170Z,2.78
2018-12-26T03:09:47.013Z,1.81
2018-12-26T03:12:17.254Z,1.93
2018-12-26T03:14:46.423Z,2.18
2018-12-26T03:17:15.703Z,2.26
2018-12-26T03:19:49.992Z,1.81
2018-12-26T03:22:21.655Z,1.92
2018-12-26T03:24:50.743Z,1.75
2018-12-26T03:27:19.850Z,1.86
2018-12-26T03:29:48.926Z,1.52
2018-12-26T03:32:19.521Z,1.51
2018-12-26T03:34:48.656Z,1.04
2018-12-26T03:37:20.769Z,1.53
2018-12-26T03:39:49.990Z,2.34
2018-12-26T03:42:19.225Z,1.80
2018-12-26T03:44:49.225Z,2.01
2018-12-26T03:47:22.716Z,2.08
2018-12-26T03:49:59.112Z,2.56
2018-12-26T03:52:32.972Z,1.93
2018-12-26T03:55:02.199Z,2.28
2018-12-26T03:57:33.665Z,2.12
2018-12-26T04:00:02.755Z,2.32
2018-12-26T04:02:33.481Z,2.43
2018-12-26T04:05:02.679Z,2.33
2018-12-26T04:07:36.237Z,2.13
2018-12-26T04:10:05.844Z,1.92
2018-12-26T04:12:35.557Z,1.78
2018-12-26T04:15:05.017Z,2.40
2018-12-26T04:17:40.166Z,2.65
2018-12-26T04:20:05.573Z,2.67
2018-12-26T04:22:36.361Z,2.30
2018-12-26T04:25:05.487Z,1.92
2018-12-26T04:27:35.691Z,2.50
2018-12-26T04:30:14.204Z,3.15
2018-12-26T04:32:43.318Z,3.26
2018-12-26T04:35:12.427Z,3.55
2018-12-26T04:37:41.512Z,1.49
2018-12-26T04:40:10.633Z,2.53
2018-12-26T04:42:41.275Z,2.52
2018-12-26T04:45:12.443Z,2.48
2018-12-26T04:47:41.603Z,2.27
2018-12-26T04:50:10.748Z,2.45
2018-12-26T04:52:39.850Z,2.67
2018-12-26T04:55:08.970Z,2.92
2018-12-26T04:57:39.698Z,2.91
2018-12-26T05:00:13.421Z,2.26
2018-12-26T05:02:43.056Z,1.93
2018-12-26T05:05:12.153Z,1.80
2018-12-26T05:07:41.241Z,2.22
2018-12-26T05:10:10.356Z,2.56
2018-12-26T05:12:39.483Z,2.05
2018-12-26T05:15:09.888Z,2.18
2018-12-26T05:17:40.777Z,1.60
2018-12-26T05:20:09.839Z,1.39
2018-12-26T05:22:40.052Z,2.02
2018-12-26T05:25:10.295Z,2.36
2018-12-26T05:27:43.184Z,2.56
2018-12-26T05:30:18.600Z,2.25
2018-12-26T05:32:50.756Z,2.68
2018-12-26T05:35:19.866Z,3.36
2018-12-26T05:37:48.980Z,3.59
2018-12-26T05:40:18.056Z,3.27
2018-12-26T05:42:47.153Z,3.22
2018-12-26T05:45:16.306Z,3.19
2018-12-26T05:47:47.178Z,3.19
2018-12-26T05:50:16.266Z,3.15
2018-12-26T05:52:45.388Z,2.50
2018-12-26T05:55:16.167Z,2.87
2018-12-26T05:57:45.356Z,3.12
2018-12-26T06:00:20.498Z,3.05
2018-12-26T06:02:53.623Z,2.66
2018-12-26T06:05:22.927Z,2.68
2018-12-26T06:07:53.597Z,2.10
2018-12-26T06:10:22.743Z,2.07
2018-12-26T06:12:51.830Z,2.28
2018-12-26T06:15:21.291Z,2.57
2018-12-26T06:17:50.372Z,2.43
2018-12-26T06:20:22.348Z,2.18
2018-12-26T06:22:56.513Z,2.48
2018-12-26T06:25:29.507Z,2.41
2018-12-26T06:27:58.609Z,2.84
2018-12-26T06:30:31.282Z,2.63
2018-12-26T06:33:02.659Z,2.74
2018-12-26T06:35:31.748Z,2.23
2018-12-26T06:38:01.598Z,2.64
2018-12-26T06:40:32.801Z,2.50
2018-12-26T06:43:02.404Z,3.15
2018-12-26T06:45:31.590Z,3.53
2018-12-26T06:48:00.682Z,2.54
2018-12-26T06:50:29.981Z,2.22
2018-12-26T06:53:03.062Z,3.02
2018-12-26T06:55:33.568Z,3.33
2018-12-26T06:58:03.889Z,2.97
2018-12-26T07:00:33.409Z,3.61
2018-12-26T07:03:12.793Z,2.96
2018-12-26T07:05:41.971Z,3.08
2018-12-26T07:08:11.067Z,2.63
2018-12-26T07:10:40.204Z,2.18
2018-12-26T07:13:09.704Z,2.64
2018-12-26T07:15:39.306Z,2.66
2018-12-26T07:18:08.847Z,2.44
2018-12-26T07:20:40.524Z,3.03
2018-12-26T07:23:09.633Z,3.39
2018-12-26T07:25:40.557Z,3.40
2018-12-26T07:28:09.675Z,3.51
2018-12-26T07:30:38.743Z,2.53
2018-12-26T07:33:09.347Z,2.08
2018-12-26T07:35:38.522Z,1.52
2018-12-26T07:38:12.124Z,0.89
2018-12-26T07:40:42.346Z,1.84
2018-12-26T07:43:11.491Z,2.04
2018-12-26T07:45:42.763Z,2.19
2018-12-26T07:48:14.866Z,2.03
2018-12-26T07:50:47.029Z,0.93
2018-12-26T07:53:16.210Z,1.91
2018-12-26T07:55:45.512Z,2.48
2018-12-26T07:58:17.673Z,2.60
2018-12-26T08:00:47.770Z,1.68
2018-12-26T08:03:21.586Z,1.59
2018-12-26T08:05:51.822Z,1.74
2018-12-26T08:08:22.327Z,2.15
2018-12-26T08:10:54.652Z,2.36
2018-12-26T08:13:23.757Z,2.69
2018-12-26T08:15:52.864Z,2.53
2018-12-26T08:18:23.386Z,2.65
2018-12-26T08:20:52.723Z,3.47
2018-12-26T08:23:24.897Z,2.36
2018-12-26T08:25:54.033Z,2.27
2018-12-26T08:28:29.359Z,-5.18
2018-12-26T08:30:54.048Z,2.14
2018-12-26T08:33:23.185Z,2.36
2018-12-26T08:35:52.328Z,2.29
2018-12-26T08:38:22.468Z,3.49
2018-12-26T08:40:53.322Z,2.82
2018-12-26T08:43:24.243Z,3.26
2018-12-26T08:45:58.261Z,2.61
2018-12-26T08:48:47.089Z,2.29
2018-12-26T08:51:18.648Z,2.17
2018-12-26T08:53:47.745Z,2.83
2018-12-26T08:56:17.379Z,3.79
2018-12-26T08:58:46.836Z,3.92
2018-12-26T09:01:16.346Z,3.58
2018-12-26T09:03:48.158Z,2.86
2018-12-26T09:06:24.363Z,2.19
2018-12-26T09:08:55.335Z,2.19
2018-12-26T09:11:26.040Z,3.04
2018-12-26T09:13:55.166Z,3.58
2018-12-26T09:16:24.304Z,3.63
2018-12-26T09:18:54.384Z,3.71
2018-12-26T09:21:24.921Z,4.06
2018-12-26T09:23:57.329Z,3.84
2018-12-26T09:26:28.445Z,3.79
2018-12-26T09:28:57.525Z,3.64
2018-12-26T09:31:26.624Z,3.20
2018-12-26T09:33:55.737Z,3.30
2018-12-26T09:36:24.921Z,3.28
2018-12-26T09:38:57.891Z,3.23
2018-12-26T09:41:27.302Z,4.33
2018-12-26T09:44:01.885Z,3.83
2018-12-26T09:46:30.972Z,4.50
2018-12-26T09:49:00.096Z,4.27
2018-12-26T09:51:29.259Z,2.72
2018-12-26T09:54:03.607Z,3.95
2018-12-26T09:56:35.232Z,3.88
2018-12-26T09:59:04.355Z,3.85
2018-12-26T10:01:33.503Z,4.12
2018-12-26T10:04:03.020Z,4.14
2018-12-26T10:06:32.146Z,3.30
2018-12-26T10:09:07.717Z,2.51
2018-12-26T10:11:38.726Z,3.24
2018-12-26T10:14:07.819Z,3.06
2018-12-26T10:16:36.970Z,3.37
2018-12-26T10:19:08.486Z,4.08
2018-12-26T10:21:43.306Z,4.53
2018-12-26T10:24:12.785Z,4.96
2018-12-26T10:26:41.920Z,4.83
2018-12-26T10:29:11.027Z,4.76
2018-12-26T10:31:40.332Z,4.90
2018-12-26T10:34:11.089Z,5.04
2018-12-26T10:36:40.179Z,4.94
2018-12-26T10:39:09.321Z,5.38
2018-12-26T10:41:39.507Z,5.31
2018-12-26T10:44:10.250Z,4.61
2018-12-26T10:46:39.386Z,4.95
2018-12-26T10:49:15.370Z,-3.31
2018-12-26T10:51:44.523Z,5.04
2018-12-26T10:54:13.695Z,4.87
2018-12-26T10:56:43.095Z,4.58
2018-12-26T10:59:14.097Z,4.11
2018-12-26T11:01:43.208Z,4.60
2018-12-26T11:04:12.342Z,4.59
2018-12-26T11:06:44.259Z,4.30
2018-12-26T11:09:14.999Z,3.91
2018-12-26T11:11:44.172Z,4.02
2018-12-26T11:14:14.683Z,4.50
2018-12-26T11:16:47.229Z,4.22
2018-12-26T11:19:22.139Z,4.99
2018-12-26T11:21:52.761Z,4.59
2018-12-26T11:24:25.717Z,4.96
2018-12-26T11:27:04.361Z,4.94
2018-12-26T11:29:33.448Z,5.31
2018-12-26T11:32:02.547Z,4.54
2018-12-26T11:34:31.641Z,5.02
2018-12-26T11:37:02.182Z,4.42
2018-12-26T11:39:31.404Z,4.25
2018-12-26T11:42:03.257Z,3.99
2018-12-26T11:44:34.140Z,4.84
2018-12-26T11:47:05.920Z,4.63
2018-12-26T11:49:34.994Z,5.27
2018-12-26T11:52:07.226Z,4.53
2018-12-26T11:54:36.391Z,4.26
2018-12-26T11:57:09.601Z,4.92
2018-12-26T11:59:41.196Z,5.51
2018-12-26T12:02:20.413Z,5.72
2018-12-26T12:04:43.405Z,5.78
2018-12-26T12:07:13.813Z,5.54
2018-12-26T12:09:49.938Z,5.25
2018-12-26T12:12:23.055Z,4.98
2018-12-26T12:14:54.588Z,4.57
2018-12-26T12:17:24.114Z,4.08
2018-12-26T12:19:55.705Z,4.53
2018-12-26T12:22:25.133Z,4.50
2018-12-26T12:25:05.033Z,4.81
2018-12-26T12:27:34.144Z,4.45
2018-12-26T12:30:04.336Z,5.14
2018-12-26T12:32:35.233Z,4.86
2018-12-26T12:35:04.537Z,5.44
2018-12-26T12:37:36.620Z,4.80
2018-12-26T12:40:07.238Z,5.29
2018-12-26T12:42:37.501Z,4.96
2018-12-26T12:45:08.352Z,4.75
2018-12-26T12:47:38.767Z,4.77
2018-12-26T12:50:08.207Z,4.96
2018-12-26T12:52:40.439Z,4.83
2018-12-26T12:55:09.594Z,5.27
2018-12-26T12:57:39.606Z,5.34
2018-12-26T13:00:11.544Z,5.92
2018-12-26T13:02:46.762Z,6.05
2018-12-26T13:05:18.048Z,6.24
2018-12-26T13:07:46.808Z,6.08
2018-12-26T13:10:18.869Z,6.17
2018-12-26T13:12:48.006Z,6.11
2018-12-26T13:15:19.415Z,-2.12
2018-12-26T13:17:48.593Z,6.24
2018-12-26T13:20:20.209Z,6.05
2018-12-26T13:22:49.607Z,5.80
2018-12-26T13:25:19.260Z,6.07
2018-12-26T13:27:48.843Z,5.76
2018-12-26T13:30:20.182Z,6.50
2018-12-26T13:32:55.470Z,6.96
2018-12-26T13:35:26.920Z,5.75
2018-12-26T13:37:56.380Z,5.66
2018-12-26T13:40:30.020Z,5.54
2018-12-26T13:43:00.489Z,6.07
2018-12-26T13:45:35.421Z,6.98
2018-12-26T13:48:04.634Z,6.22
2018-12-26T13:50:36.835Z,7.09
2018-12-26T13:53:06.016Z,7.52
2018-12-26T13:55:35.212Z,7.67
2018-12-26T13:58:04.463Z,7.78
2018-12-26T14:00:37.899Z,7.85
2018-12-26T14:03:10.123Z,7.25
2018-12-26T14:05:41.460Z,6.79
2018-12-26T14:08:10.317Z,6.17
2018-12-26T14:10:39.914Z,5.79
2018-12-26T14:13:11.913Z,5.26
2018-12-26T14:15:45.126Z,5.46
2018-12-26T14:18:16.314Z,5.54
2018-12-26T14:20:48.139Z,5.27
2018-12-26T14:23:19.124Z,5.76
2018-12-26T14:25:48.251Z,5.86
2018-12-26T14:28:19.069Z,5.75
2018-12-26T14:30:49.313Z,5.77
2018-12-26T14:33:18.453Z,5.74
2018-12-26T14:35:53.683Z,5.45
2018-12-26T14:38:22.845Z,5.13
2018-12-26T14:40:52.188Z,4.88
2018-12-26T14:43:21.285Z,4.95
2018-12-26T14:45:50.463Z,5.23
2018-12-26T14:48:19.582Z,5.46
2018-12-26T14:50:50.747Z,5.73
2018-12-26T14:53:20.951Z,5.69
2018-12-26T14:55:51.670Z,5.54
2018-12-26T14:58:22.499Z,5.43
2018-12-26T15:00:51.613Z,5.41
2018-12-26T15:03:20.701Z,5.55
2018-12-26T15:05:50.024Z,5.57
2018-12-26T15:08:20.415Z,5.47
2018-12-26T15:10:50.059Z,5.50
2018-12-26T15:13:19.108Z,5.20
2018-12-26T15:15:49.413Z,4.99
2018-12-26T15:18:20.599Z,4.86
2018-12-26T15:20:54.723Z,4.54
2018-12-26T15:23:22.164Z,4.51
2018-12-26T15:25:51.280Z,4.52
2018-12-26T15:28:20.399Z,4.44
2018-12-26T15:30:49.575Z,4.35
2018-12-26T15:33:23.128Z,4.31
2018-12-26T15:35:52.809Z,4.17
2018-12-26T15:38:21.936Z,4.14
2018-12-26T15:40:51.964Z,4.09
2018-12-26T15:43:21.049Z,3.93
2018-12-26T15:45:56.295Z,3.96
2018-12-26T15:48:25.795Z,4.01
2018-12-26T15:50:59.311Z,3.94
2018-12-26T15:53:34.111Z,4.27
2018-12-26T15:56:06.012Z,4.36
2018-12-26T15:58:35.239Z,4.46
2018-12-26T16:01:07.285Z,4.44
2018-12-26T16:03:38.615Z,4.32
2018-12-26T16:06:09.970Z,4.34
2018-12-26T16:08:51.306Z,4.60
2018-12-26T16:11:21.405Z,4.63
2018-12-26T16:13:50.875Z,4.35
2018-12-26T16:16:24.237Z,4.65
2018-12-26T16:18:53.557Z,4.87
2018-12-26T16:21:23.988Z,5.05
2018-12-26T16:23:55.928Z,4.77
2018-12-26T16:26:27.064Z,4.58
2018-12-26T16:29:00.650Z,5.13
2018-12-26T16:31:29.807Z,5.26
2018-12-26T16:34:00.305Z,5.05
2018-12-26T16:36:30.674Z,5.57
2018-12-26T16:39:09.659Z,5.66
2018-12-26T16:41:39.441Z,5.47
2018-12-26T16:44:13.583Z,5.37
2018-12-26T16:46:47.600Z,5.38
2018-12-26T16:49:21.500Z,5.34
2018-12-26T16:51:55.313Z,5.51
2018-12-26T16:54:26.204Z,5.52
2018-12-26T16:56:55.511Z,5.54
2018-12-26T16:59:28.905Z,5.83
2018-12-26T17:02:00.476Z,5.62
2018-12-26T17:04:29.672Z,5.68
2018-12-26T17:06:58.768Z,3.91
2018-12-26T17:09:31.644Z,5.02
2018-12-26T17:12:00.753Z,5.69
2018-12-26T17:14:29.885Z,5.65
2018-12-26T17:16:59.182Z,5.68
2018-12-26T17:19:29.625Z,5.76
2018-12-26T17:21:59.080Z,5.60
2018-12-26T17:24:28.170Z,5.35
2018-12-26T17:26:57.375Z,5.01
2018-12-26T17:29:28.624Z,5.03
2018-12-26T17:31:57.759Z,5.34
2018-12-26T17:34:32.354Z,5.05
2018-12-26T17:37:01.557Z,5.08
2018-12-26T17:39:32.876Z,5.22
2018-12-26T17:42:01.978Z,5.18
2018-12-26T17:44:32.311Z,5.14
2018-12-26T17:47:04.646Z,5.44
2018-12-26T17:49:35.246Z,5.17
2018-12-26T17:52:04.424Z,5.12
2018-12-26T17:55:04.318Z,5.04
2018-12-26T17:57:41.976Z,5.06
2018-12-26T18:01:03.677Z,5.82
2018-12-26T18:03:32.850Z,5.26
2018-12-26T18:06:02.331Z,4.23
2018-12-26T18:08:37.366Z,4.00
2018-12-26T18:11:06.489Z,4.71
2018-12-26T18:13:35.609Z,5.36
2018-12-26T18:16:04.820Z,4.64
2018-12-26T18:18:40.387Z,4.93
2018-12-26T18:21:09.886Z,4.99
2018-12-26T18:23:40.951Z,5.05
2018-12-26T18:26:10.067Z,4.97
2018-12-26T18:28:41.724Z,5.39
2018-12-26T18:31:21.968Z,5.68
2018-12-26T18:33:45.552Z,4.87
2018-12-26T18:36:19.799Z,4.75
2018-12-26T18:38:48.905Z,4.38
2018-12-26T18:41:18.021Z,4.64
2018-12-26T18:43:48.133Z,5.16
2018-12-26T18:46:20.137Z,5.49
2018-12-26T18:48:49.309Z,5.40
2018-12-26T18:51:19.506Z,5.40
2018-12-26T18:53:49.964Z,5.24
2018-12-26T18:56:22.107Z,5.11
2018-12-26T18:58:57.405Z,5.29
2018-12-26T19:01:30.653Z,5.23
2018-12-26T19:03:57.513Z,5.31
2018-12-26T19:06:26.606Z,5.25
2018-12-26T19:08:57.030Z,5.48
2018-12-26T19:11:32.762Z,5.34
2018-12-26T19:14:01.936Z,5.53
2018-12-26T19:16:31.029Z,5.14
2018-12-26T19:19:02.946Z,5.24
2018-12-26T19:21:34.087Z,5.05
2018-12-26T19:24:07.740Z,5.23
2018-12-26T19:26:36.964Z,5.26
2018-12-26T19:29:06.099Z,5.24
2018-12-26T19:31:39.507Z,5.04
2018-12-26T19:34:06.252Z,5.02
2018-12-26T19:36:35.390Z,5.10
2018-12-26T19:39:06.411Z,4.88
2018-12-26T19:41:35.524Z,5.17
2018-12-26T19:44:04.705Z,5.13
2018-12-26T19:46:33.790Z,4.94
2018-12-26T19:49:05.789Z,4.85
2018-12-26T19:51:36.985Z,4.49
2018-12-26T19:54:06.097Z,4.33
2018-12-26T19:56:35.506Z,4.85
2018-12-26T19:59:04.913Z,4.57
2018-12-26T20:01:48.153Z,4.15
2018-12-26T20:04:04.838Z,4.12
2018-12-26T20:06:36.973Z,4.11
2018-12-26T20:09:07.453Z,4.20
2018-12-26T20:11:38.630Z,3.86
2018-12-26T20:14:07.927Z,3.90
2018-12-26T20:16:37.092Z,4.08
2018-12-26T20:19:15.439Z,4.21
2018-12-26T20:21:44.585Z,4.56
2018-12-26T20:24:17.861Z,4.51
2018-12-26T20:26:51.280Z,4.58
2018-12-26T20:29:23.428Z,4.39
2018-12-26T20:31:56.853Z,4.56
2018-12-26T20:34:29.528Z,4.66
2018-12-26T20:37:01.697Z,4.37
2018-12-26T20:39:32.076Z,4.92
2018-12-26T20:42:01.116Z,5.12
2018-12-26T20:44:30.708Z,5.04
2018-12-26T20:47:00.074Z,5.06
2018-12-26T20:49:30.478Z,5.07
2018-12-26T20:52:02.143Z,4.20
2018-12-26T20:54:32.071Z,3.87
2018-12-26T20:57:06.799Z,4.18
2018-12-26T20:59:42.272Z,3.78
2018-12-26T21:02:12.640Z,3.61
2018-12-26T21:04:43.368Z,3.77
2018-12-26T21:07:12.487Z,4.07
2018-12-26T21:09:41.617Z,4.23
2018-12-26T21:12:11.844Z,3.92
2018-12-26T21:14:40.956Z,4.02
2018-12-26T21:17:11.387Z,4.41
2018-12-26T21:19:40.851Z,4.74
2018-12-26T21:22:09.968Z,4.47
2018-12-26T21:24:39.069Z,4.04
2018-12-26T21:27:08.239Z,4.31
2018-12-26T21:29:38.556Z,4.39
2018-12-26T21:32:14.057Z,4.51
2018-12-26T21:34:39.420Z,4.27
2018-12-26T21:37:08.524Z,4.89
2018-12-26T21:39:41.729Z,4.79
2018-12-26T21:42:10.859Z,4.57
2018-12-26T21:44:41.778Z,4.58
2018-12-26T21:47:11.986Z,4.65
2018-12-26T21:49:42.746Z,4.38
2018-12-26T21:52:11.931Z,4.10
2018-12-26T21:54:42.122Z,4.10
2018-12-26T21:57:11.422Z,4.26
2018-12-26T21:59:40.554Z,4.12
2018-12-26T22:02:22.365Z,4.56
2018-12-26T22:04:50.841Z,4.89
2018-12-26T22:07:21.920Z,4.61
2018-12-26T22:09:51.022Z,4.56
2018-12-26T22:12:20.418Z,4.66
2018-12-26T22:14:49.810Z,4.36
2018-12-26T22:17:21.019Z,4.00
2018-12-26T22:19:50.232Z,4.25
2018-12-26T22:22:19.374Z,4.01
2018-12-26T22:24:48.486Z,4.23
2018-12-26T22:27:20.002Z,4.00
2018-12-26T22:29:49.406Z,3.74
2018-12-26T22:32:18.655Z,3.85
2018-12-26T22:34:47.865Z,4.10
2018-12-26T22:37:18.102Z,3.89
2018-12-26T22:39:47.206Z,3.77
2018-12-26T22:42:16.370Z,3.65
2018-12-26T22:44:49.861Z,3.53
2018-12-26T22:47:18.953Z,3.46
2018-12-26T22:49:48.936Z,3.80
2018-12-26T22:52:27.078Z,3.24
2018-12-26T22:54:56.221Z,3.83
2018-12-26T22:57:26.210Z,4.17
2018-12-26T22:59:57.082Z,4.22
2018-12-26T23:02:26.322Z,4.68
2018-12-26T23:04:56.914Z,4.12
2018-12-26T23:07:29.684Z,4.75
2018-12-26T23:09:59.236Z,4.66
2018-12-26T23:12:28.338Z,4.58
2018-12-26T23:14:57.599Z,4.95
2018-12-26T23:17:26.806Z,4.97
2018-12-26T23:19:57.624Z,4.67
2018-12-26T23:22:29.506Z,4.18
2018-12-26T23:24:59.729Z,4.76
2018-12-26T23:27:28.927Z,4.81
2018-12-26T23:29:58.132Z,-5.13
2018-12-26T23:32:27.603Z,5.37
2018-12-26T23:34:59.509Z,5.17
2018-12-26T23:37:30.559Z,4.57
2018-12-26T23:40:04.613Z,3.86
2018-12-26T23:42:39.190Z,3.97
2018-12-26T23:45:08.347Z,4.15
2018-12-26T23:47:37.458Z,4.24
2018-12-26T23:50:07.885Z,4.24
2018-12-26T23:52:38.033Z,4.25
2018-12-26T23:55:08.997Z,4.56
2018-12-26T23:57:42.226Z,4.85
